Time;durP1;ratioP1;P1;durP2;ratioP2;P2;SDS_P1;SDS_P2;PMS_P1;PMS_P2;Temp;Humidity;BMP_temperature;BMP_pressure;BME280_temperature;BME280_humidity;BME280_pressure;Samples;Min_cycle;Max_cycle;Signal;HPM_P1;HPM_P2
2021/11/07 00:00:19;;;;;;;45.08;18.10;;;2.80;99.90;;;;;;4957807;28;20516;-67
2021/11/07 00:02:55;;;;;;;33.90;18.45;;;2.80;99.90;;;;;;4962083;28;20047;-66
2021/11/07 00:06:06;;;;;;;43.03;19.02;;;2.80;99.90;;;;;;4958148;28;20117;-67
2021/11/07 00:11:05;;;;;;;44.08;19.10;;;2.80;99.90;;;;;;4942749;28;20059;-66
2021/11/07 00:13:33;;;;;;;38.90;18.40;;;2.80;99.90;;;;;;4934441;29;20058;-67
2021/11/07 00:16:07;;;;;;;41.78;19.40;;;2.80;99.90;;;;;;4941550;28;20063;-67
2021/11/07 00:18:42;;;;;;;42.72;17.60;;;2.80;99.90;;;;;;4942618;29;20051;-67
2021/11/07 00:21:17;;;;;;;41.15;18.10;;;2.80;99.90;;;;;;4952294;28;20051;-67
2021/11/07 00:28:51;;;;;;;33.10;16.08;;;2.70;99.90;;;;;;4939226;29;20055;-66
2021/11/07 00:38:58;;;;;;;34.45;17.52;;;2.60;99.90;;;;;;4943260;28;20127;-66
2021/11/07 00:41:38;;;;;;;34.80;17.27;;;2.60;99.90;;;;;;4943364;28;20067;-66
2021/11/07 00:44:10;;;;;;;35.95;18.17;;;2.60;99.90;;;;;;4952546;28;20047;-66
2021/11/07 00:46:47;;;;;;;32.38;17.67;;;2.60;99.90;;;;;;4943249;28;20444;-65
2021/11/07 00:49:37;;;;;;;29.05;15.82;;;2.60;99.90;;;;;;4940572;29;20047;-66
2021/11/07 01:00:07;;;;;;;34.60;17.98;;;2.60;99.90;;;;;;4912047;29;20075;-66
2021/11/07 01:02:38;;;;;;;32.28;17.17;;;2.60;99.90;;;;;;4898504;29;20044;-66
2021/11/07 01:05:15;;;;;;;32.10;16.10;;;2.60;99.90;;;;;;4912028;29;20160;-66
2021/11/07 01:07:42;;;;;;;33.88;17.23;;;2.60;99.90;;;;;;4916156;29;20059;-66
2021/11/07 01:10:10;;;;;;;31.98;17.27;;;2.60;99.90;;;;;;4922397;29;20084;-66
2021/11/07 01:12:37;;;;;;;32.35;17.65;;;2.70;99.90;;;;;;4915072;29;20224;-66
2021/11/07 01:15:06;;;;;;;33.53;17.95;;;2.70;99.90;;;;;;4926599;29;20055;-66
2021/11/07 01:17:34;;;;;;;30.70;17.45;;;2.70;99.90;;;;;;4915336;29;20063;-66
2021/11/07 01:20:03;;;;;;;31.10;17.55;;;2.70;99.90;;;;;;4918852;29;20590;-65
2021/11/07 01:25:08;;;;;;;29.38;16.65;;;2.80;99.90;;;;;;4915184;29;20063;-66
2021/11/07 01:27:40;;;;;;;27.20;15.80;;;2.80;99.90;;;;;;4917435;29;20056;-65
2021/11/07 01:30:14;;;;;;;27.20;15.45;;;2.70;99.90;;;;;;4921589;29;20199;-65
2021/11/07 01:32:47;;;;;;;26.30;15.32;;;2.70;99.90;;;;;;4936343;29;20045;-66
2021/11/07 01:40:28;;;;;;;26.50;14.75;;;2.60;99.90;;;;;;4944835;29;20121;-65
2021/11/07 01:42:56;;;;;;;27.90;15.85;;;2.60;99.90;;;;;;4940837;29;20047;-65
2021/11/07 01:45:37;;;;;;;28.27;15.75;;;2.60;99.90;;;;;;4944602;29;20433;-65
2021/11/07 01:48:14;;;;;;;28.83;15.82;;;2.60;99.90;;;;;;4940793;29;20047;-65
2021/11/07 01:50:51;;;;;;;28.98;16.67;;;2.60;99.90;;;;;;4955258;29;20080;-67
2021/11/07 01:53:28;;;;;;;28.83;16.38;;;2.50;99.90;;;;;;4955511;29;20110;-66
2021/11/07 01:55:58;;;;;;;31.90;17.23;;;2.60;99.90;;;;;;4964830;28;20434;-65
2021/11/07 01:58:27;;;;;;;28.52;16.15;;;2.50;99.90;;;;;;4954922;28;20043;-65
2021/11/07 02:00:56;;;;;;;26.48;15.27;;;2.50;99.90;;;;;;4954890;29;20058;-65
2021/11/07 02:03:24;;;;;;;29.40;16.42;;;2.50;99.90;;;;;;4928183;28;20071;-65
2021/11/07 02:05:57;;;;;;;33.35;18.58;;;2.60;99.90;;;;;;4955076;29;20051;-66
2021/11/07 02:08:24;;;;;;;29.20;16.42;;;2.60;99.90;;;;;;4955145;29;20040;-65
2021/11/07 02:10:54;;;;;;;29.77;16.27;;;2.50;99.90;;;;;;4954917;28;20039;-65
2021/11/07 02:13:24;;;;;;;30.25;16.42;;;2.60;99.90;;;;;;4938150;29;20869;-65
2021/11/07 02:15:54;;;;;;;27.08;15.23;;;2.50;99.90;;;;;;4954637;28;20050;-65
2021/11/07 02:18:22;;;;;;;28.70;16.48;;;2.60;99.90;;;;;;4953898;28;20043;-65
2021/11/07 02:20:50;;;;;;;30.90;16.67;;;2.70;99.90;;;;;;4954759;29;20442;-65
2021/11/07 02:23:21;;;;;;;32.53;17.25;;;2.60;99.90;;;;;;4953820;28;20470;-65
2021/11/07 02:25:52;;;;;;;32.40;18.53;;;2.60;99.90;;;;;;4947576;29;20054;-65
2021/11/07 02:28:49;;;;;;;33.78;18.20;;;2.60;99.90;;;;;;4945441;28;20051;-66
2021/11/07 02:31:18;;;;;;;30.42;16.63;;;2.60;99.90;;;;;;4925411;29;20048;-66
2021/11/07 02:33:47;;;;;;;33.53;17.60;;;2.60;99.90;;;;;;4942393;28;20726;-66
2021/11/07 02:36:17;;;;;;;31.25;16.33;;;2.60;99.90;;;;;;4948052;29;20039;-65
2021/11/07 02:38:46;;;;;;;29.67;16.58;;;2.50;99.90;;;;;;4947009;28;20047;-66
2021/11/07 02:41:13;;;;;;;32.03;17.10;;;2.50;99.90;;;;;;4953888;28;20062;-66
2021/11/07 02:43:49;;;;;;;33.08;17.73;;;2.40;99.90;;;;;;4953456;29;20047;-66
2021/11/07 02:46:17;;;;;;;34.42;18.45;;;2.50;99.90;;;;;;4954683;28;20054;-66
2021/11/07 02:48:56;;;;;;;33.90;17.40;;;2.50;99.90;;;;;;4953897;28;20133;-66
2021/11/07 02:51:30;;;;;;;34.85;18.73;;;2.50;99.90;;;;;;4953869;28;20047;-66
2021/11/07 02:53:59;;;;;;;34.22;17.27;;;2.60;99.90;;;;;;4946071;28;20062;-66
2021/11/07 02:56:26;;;;;;;36.20;18.25;;;2.60;99.90;;;;;;4948118;29;20385;-66
2021/11/07 02:58:53;;;;;;;35.03;18.33;;;2.70;99.90;;;;;;4954133;28;20054;-67
2021/11/07 03:01:25;;;;;;;37.63;18.63;;;2.70;99.90;;;;;;4954174;28;20051;-66
2021/11/07 03:04:00;;;;;;;42.97;20.30;;;2.70;99.90;;;;;;4937047;29;20047;-66
2021/11/07 03:06:31;;;;;;;43.88;20.38;;;2.70;99.90;;;;;;4954133;29;20845;-66
2021/11/07 03:09:00;;;;;;;36.80;19.13;;;2.70;99.90;;;;;;4928672;29;20058;-66
2021/11/07 03:11:27;;;;;;;39.88;20.15;;;2.70;99.90;;;;;;4941680;28;20386;-65
2021/11/07 03:13:59;;;;;;;37.67;19.02;;;2.80;99.90;;;;;;4935501;29;20058;-65
2021/11/07 03:16:26;;;;;;;39.83;20.33;;;2.90;99.90;;;;;;4949296;29;20047;-66
2021/11/07 03:18:53;;;;;;;42.90;21.40;;;2.90;99.90;;;;;;4945789;28;20102;-66
2021/11/07 03:21:23;;;;;;;38.83;19.92;;;2.90;99.90;;;;;;4947192;29;20059;-66
2021/11/07 03:23:51;;;;;;;42.83;21.17;;;2.80;99.90;;;;;;4953150;29;20043;-65
2021/11/07 03:26:21;;;;;;;42.08;20.40;;;2.80;99.90;;;;;;4945937;29;20095;-66
2021/11/07 03:28:51;;;;;;;40.33;19.58;;;2.80;99.90;;;;;;4949399;28;20055;-66
2021/11/07 03:31:28;;;;;;;42.35;20.77;;;2.80;99.90;;;;;;4946055;28;20522;-66
2021/11/07 03:33:59;;;;;;;42.75;20.55;;;2.80;99.90;;;;;;4946831;29;20039;-67
2021/11/07 03:36:32;;;;;;;39.00;20.42;;;2.70;99.90;;;;;;4945766;29;20052;-66
2021/11/07 03:38:59;;;;;;;41.20;20.52;;;2.80;99.90;;;;;;4950617;28;20055;-66
2021/11/07 03:41:27;;;;;;;38.25;19.45;;;2.80;99.90;;;;;;4945632;28;20058;-66
2021/11/07 03:43:56;;;;;;;42.45;19.98;;;2.80;99.90;;;;;;4953201;28;20478;-66
2021/11/07 03:46:24;;;;;;;42.90;21.33;;;2.70;99.90;;;;;;4950245;28;20067;-66
2021/11/07 03:48:52;;;;;;;42.45;21.58;;;2.70;99.90;;;;;;4940145;29;20411;-65
2021/11/07 03:51:19;;;;;;;45.00;22.23;;;2.60;99.90;;;;;;4950274;28;20574;-65
2021/11/07 03:53:47;;;;;;;43.65;22.30;;;2.70;99.90;;;;;;4952978;29;20123;-66
2021/11/07 03:56:14;;;;;;;43.75;21.85;;;2.60;99.90;;;;;;4952045;29;20047;-66
2021/11/07 03:58:42;;;;;;;47.60;23.95;;;2.70;99.90;;;;;;4952697;29;20110;-66
2021/11/07 04:01:10;;;;;;;52.58;23.48;;;2.70;99.90;;;;;;4952340;28;20058;-66
2021/11/07 04:03:37;;;;;;;43.47;22.20;;;2.70;99.90;;;;;;4954644;28;20055;-65
2021/11/07 04:06:04;;;;;;;47.22;22.30;;;2.80;99.90;;;;;;4952555;28;20043;-65
2021/11/07 04:08:31;;;;;;;47.90;22.73;;;2.90;99.90;;;;;;4953129;28;20039;-65
2021/11/07 04:10:59;;;;;;;45.08;22.63;;;2.90;99.90;;;;;;4952035;29;20039;-66
2021/11/07 04:13:26;;;;;;;44.45;23.60;;;3.00;99.90;;;;;;4953119;28;20553;-66
2021/11/07 04:15:53;;;;;;;47.53;23.23;;;3.00;99.90;;;;;;4951447;29;20047;-66
2021/11/07 04:18:20;;;;;;;43.97;21.10;;;3.00;99.90;;;;;;4952691;28;20491;-66
2021/11/07 04:20:48;;;;;;;43.35;21.38;;;3.00;99.90;;;;;;4952227;28;20103;-66
2021/11/07 04:23:15;;;;;;;44.10;21.85;;;3.10;99.90;;;;;;4952206;29;20078;-66
2021/11/07 04:25:43;;;;;;;48.47;23.33;;;3.10;99.90;;;;;;4952593;28;20055;-66
2021/11/07 04:28:10;;;;;;;44.70;21.35;;;3.10;99.90;;;;;;4951758;28;20110;-66
2021/11/07 04:30:37;;;;;;;45.22;22.08;;;3.10;99.90;;;;;;4951916;29;20047;-66
2021/11/07 04:33:05;;;;;;;47.72;23.08;;;3.10;99.90;;;;;;4951469;29;20063;-66
2021/11/07 04:35:32;;;;;;;46.25;22.27;;;3.10;99.90;;;;;;4952713;29;20056;-66
2021/11/07 04:38:00;;;;;;;45.15;20.80;;;3.10;99.90;;;;;;4952355;29;20043;-66
2021/11/07 04:40:27;;;;;;;45.53;22.45;;;3.20;99.90;;;;;;4936432;29;20118;-66
2021/11/07 04:42:55;;;;;;;47.08;22.27;;;3.10;99.90;;;;;;4954866;29;20139;-65
2021/11/07 04:45:22;;;;;;;44.92;21.08;;;3.10;99.90;;;;;;4954018;28;20051;-65
2021/11/07 04:47:50;;;;;;;49.10;22.92;;;3.10;99.90;;;;;;4930924;29;20062;-65
2021/11/07 04:50:19;;;;;;;52.10;23.42;;;3.00;99.90;;;;;;4952950;29;20051;-66
2021/11/07 04:52:47;;;;;;;47.55;22.50;;;3.00;99.90;;;;;;4954382;29;20039;-65
2021/11/07 04:55:15;;;;;;;48.03;22.33;;;3.00;99.90;;;;;;4955588;29;20710;-66
2021/11/07 04:57:43;;;;;;;51.53;23.85;;;3.00;99.90;;;;;;4956084;29;20046;-66
2021/11/07 05:00:15;;;;;;;53.55;23.42;;;3.00;99.90;;;;;;4957226;28;20074;-66
2021/11/07 05:02:42;;;;;;;50.60;23.55;;;3.00;99.90;;;;;;4955552;28;20036;-66
2021/11/07 05:05:10;;;;;;;54.38;24.25;;;2.90;99.90;;;;;;4954195;28;20047;-66
2021/11/07 05:07:37;;;;;;;54.25;25.45;;;2.90;99.90;;;;;;4955600;29;20047;-66
2021/11/07 05:10:05;;;;;;;51.92;23.85;;;2.80;99.90;;;;;;4954769;28;20047;-66
2021/11/07 05:12:33;;;;;;;50.83;23.20;;;2.90;99.90;;;;;;4954044;29;20047;-65
2021/11/07 05:15:00;;;;;;;53.45;25.00;;;3.00;99.90;;;;;;4954895;28;20042;-66
2021/11/07 05:17:27;;;;;;;48.78;23.33;;;3.00;99.90;;;;;;4955489;29;20436;-65
2021/11/07 05:19:55;;;;;;;50.88;23.48;;;3.00;99.90;;;;;;4964913;28;20443;-66
2021/11/07 05:22:22;;;;;;;51.22;23.50;;;3.10;99.90;;;;;;4955230;28;20054;-66
2021/11/07 05:24:49;;;;;;;54.88;23.38;;;3.10;99.90;;;;;;4953517;29;20047;-66
2021/11/07 05:27:16;;;;;;;50.42;23.70;;;3.00;99.90;;;;;;4955073;28;20410;-66
2021/11/07 05:29:44;;;;;;;53.90;24.02;;;3.10;99.90;;;;;;4954326;28;20051;-66
2021/11/07 05:32:11;;;;;;;52.75;24.52;;;3.00;99.90;;;;;;4955518;29;20102;-66
2021/11/07 05:34:41;;;;;;;51.25;23.20;;;3.00;99.90;;;;;;4953932;29;20047;-66
2021/11/07 05:37:09;;;;;;;49.22;23.92;;;3.00;99.90;;;;;;4954932;29;20047;-66
2021/11/07 05:39:36;;;;;;;52.38;22.08;;;3.00;99.90;;;;;;4955136;28;20073;-66
2021/11/07 05:42:04;;;;;;;50.65;24.38;;;2.90;99.90;;;;;;4954516;28;20110;-66
2021/11/07 05:44:32;;;;;;;53.83;23.80;;;2.90;99.90;;;;;;4956898;28;20047;-66
2021/11/07 05:47:00;;;;;;;56.10;24.63;;;2.90;99.90;;;;;;4968107;28;20043;-67
2021/11/07 05:49:27;;;;;;;50.05;23.73;;;2.90;99.90;;;;;;4943871;29;20051;-66
2021/11/07 05:51:54;;;;;;;56.97;25.65;;;2.90;99.90;;;;;;4954503;28;20043;-66
2021/11/07 05:54:22;;;;;;;50.80;23.30;;;2.90;99.90;;;;;;4954499;28;20043;-66
2021/11/07 05:56:49;;;;;;;48.30;22.05;;;2.90;99.90;;;;;;4954209;29;20047;-67
2021/11/07 05:59:17;;;;;;;45.90;23.45;;;2.90;99.90;;;;;;4955181;29;20039;-66
2021/11/07 06:01:45;;;;;;;48.72;23.42;;;2.90;99.90;;;;;;4952420;29;20322;-67
2021/11/07 06:04:12;;;;;;;52.38;23.45;;;2.80;99.90;;;;;;4954581;29;20050;-68
2021/11/07 06:06:39;;;;;;;51.28;22.55;;;2.70;99.90;;;;;;4943458;29;20047;-66
2021/11/07 06:09:08;;;;;;;46.38;23.10;;;2.70;99.90;;;;;;4954994;28;20050;-67
2021/11/07 06:11:36;;;;;;;57.28;24.25;;;2.70;99.90;;;;;;4954734;28;20062;-67
2021/11/07 06:14:03;;;;;;;49.75;23.83;;;2.70;99.90;;;;;;4954424;29;20049;-67
2021/11/07 06:16:31;;;;;;;51.08;24.27;;;2.70;99.90;;;;;;4954046;29;20039;-67
2021/11/07 06:18:58;;;;;;;51.63;23.73;;;2.70;99.90;;;;;;4953988;29;20039;-67
2021/11/07 06:21:25;;;;;;;49.80;22.27;;;2.70;99.90;;;;;;4952825;28;20047;-66
2021/11/07 06:23:55;;;;;;;58.63;22.98;;;2.80;99.90;;;;;;4945903;29;20050;-66
2021/11/07 06:26:23;;;;;;;48.03;22.60;;;2.90;99.90;;;;;;4953877;29;20054;-65
2021/11/07 06:28:52;;;;;;;50.38;23.33;;;2.90;99.90;;;;;;4954474;28;20055;-65
2021/11/07 06:31:23;;;;;;;46.13;22.45;;;3.00;99.90;;;;;;4952413;29;20074;-65
2021/11/07 06:33:50;;;;;;;51.20;23.05;;;3.00;99.90;;;;;;4953709;28;20102;-66
2021/11/07 06:36:17;;;;;;;46.22;23.08;;;3.00;99.90;;;;;;4946636;28;20051;-65
2021/11/07 06:38:45;;;;;;;47.28;23.30;;;3.00;99.90;;;;;;4952554;28;20047;-66
2021/11/07 06:41:12;;;;;;;46.88;23.63;;;3.00;99.90;;;;;;4954093;28;20062;-66
2021/11/07 06:43:39;;;;;;;50.13;24.98;;;3.10;99.90;;;;;;4953848;28;20054;-65
2021/11/07 06:46:07;;;;;;;44.38;21.80;;;3.10;99.90;;;;;;4954037;29;20046;-66
2021/11/07 06:48:34;;;;;;;44.25;22.15;;;3.10;99.90;;;;;;4954319;29;20051;-66
2021/11/07 06:51:02;;;;;;;45.72;22.05;;;3.20;99.90;;;;;;4953837;28;20057;-66
2021/11/07 06:53:30;;;;;;;44.80;20.98;;;3.20;99.90;;;;;;4953538;28;20119;-66
2021/11/07 06:55:58;;;;;;;40.17;21.75;;;3.20;99.90;;;;;;4952470;28;20043;-66
2021/11/07 06:58:25;;;;;;;40.28;20.60;;;3.30;99.90;;;;;;4953950;28;20039;-65
2021/11/07 07:00:52;;;;;;;42.70;21.02;;;3.30;99.90;;;;;;4953398;29;20475;-66
2021/11/07 07:03:20;;;;;;;40.10;19.60;;;3.40;99.90;;;;;;4953474;28;20142;-66
2021/11/07 07:05:48;;;;;;;40.20;19.55;;;3.40;99.90;;;;;;4954151;28;20063;-65
2021/11/07 07:08:20;;;;;;;38.95;19.92;;;3.50;99.90;;;;;;4951542;28;20043;-65
2021/11/07 07:10:59;;;;;;;38.53;20.00;;;3.60;99.90;;;;;;4953108;28;20486;-65
2021/11/07 07:13:35;;;;;;;37.10;18.85;;;3.70;99.90;;;;;;4952563;29;20058;-65
2021/11/07 07:16:25;;;;;;;38.00;19.42;;;3.70;99.90;;;;;;4955818;28;20043;-66
2021/11/07 07:19:07;;;;;;;40.58;20.42;;;3.80;99.90;;;;;;4948783;29;20058;-66
2021/11/07 07:34:53;;;;;;;34.47;18.08;;;4.20;99.90;;;;;;4952564;29;20036;-66
2021/11/07 07:37:21;;;;;;;38.33;18.23;;;4.30;99.90;;;;;;4951716;28;20043;-66
2021/11/07 07:39:48;;;;;;;32.58;18.38;;;4.30;99.90;;;;;;4948359;29;20502;-66
2021/11/07 07:42:16;;;;;;;32.35;18.40;;;4.40;99.90;;;;;;4952715;28;20043;-66
2021/11/07 07:44:44;;;;;;;32.83;18.17;;;4.50;99.90;;;;;;4951280;28;20051;-66
2021/11/07 07:47:12;;;;;;;35.35;19.08;;;4.60;99.90;;;;;;4951733;28;20073;-66
2021/11/07 07:49:40;;;;;;;29.00;16.40;;;4.60;99.90;;;;;;4953897;28;20450;-66
2021/11/07 07:52:08;;;;;;;25.92;15.23;;;4.80;99.90;;;;;;4952056;29;20054;-65
2021/11/07 07:54:36;;;;;;;29.30;15.85;;;5.00;99.90;;;;;;4952998;29;20035;-65
2021/11/07 07:57:03;;;;;;;26.30;14.50;;;5.10;99.90;;;;;;4952310;29;20066;-66
2021/11/07 07:59:31;;;;;;;26.52;14.70;;;5.30;99.90;;;;;;4947353;29;20475;-66
2021/11/07 08:01:58;;;;;;;28.65;16.08;;;5.60;99.90;;;;;;4934182;29;20062;-68
2021/11/07 08:04:25;;;;;;;27.25;14.35;;;5.80;99.90;;;;;;4951071;28;20047;-65
2021/11/07 08:06:53;;;;;;;24.83;13.82;;;6.00;99.90;;;;;;4952133;29;20046;-65
2021/11/07 08:09:21;;;;;;;23.90;14.27;;;6.00;99.90;;;;;;4951996;28;20047;-66
2021/11/07 08:11:48;;;;;;;26.83;15.00;;;6.20;99.90;;;;;;4952352;28;20101;-66
2021/11/07 08:14:16;;;;;;;21.85;12.80;;;6.30;99.90;;;;;;4941934;28;20091;-66
2021/11/07 08:16:45;;;;;;;21.65;13.73;;;6.30;99.90;;;;;;4937785;29;20043;-66
2021/11/07 08:19:12;;;;;;;22.30;13.23;;;6.30;99.90;;;;;;4952538;28;20134;-67
2021/11/07 08:21:41;;;;;;;23.15;12.95;;;6.30;99.90;;;;;;4952026;29;20075;-65
2021/11/07 08:24:10;;;;;;;25.13;13.27;;;6.20;99.90;;;;;;4953057;28;20481;-66
2021/11/07 08:26:42;;;;;;;23.02;12.75;;;6.10;99.90;;;;;;4952333;29;20055;-65
2021/11/07 08:29:13;;;;;;;22.40;12.25;;;6.10;99.90;;;;;;4952410;28;20051;-66
2021/11/07 08:31:42;;;;;;;21.38;12.50;;;6.20;99.90;;;;;;4950265;29;20044;-66
2021/11/07 08:34:10;;;;;;;19.42;10.75;;;6.00;99.90;;;;;;4952097;28;20046;-65
2021/11/07 08:36:45;;;;;;;22.42;12.18;;;6.10;99.90;;;;;;4959261;28;20038;-67
2021/11/07 08:39:18;;;;;;;19.58;11.15;;;6.20;99.90;;;;;;4937766;29;20050;-66
2021/11/07 08:41:59;;;;;;;21.88;11.98;;;6.20;99.90;;;;;;4951267;28;20058;-66
2021/11/07 09:06:45;;;;;;;20.95;12.77;;;5.80;99.90;;;;;;4940705;29;20050;-66
2021/11/07 09:09:14;;;;;;;22.65;12.82;;;5.80;99.90;;;;;;4950205;28;20465;-66
2021/11/07 09:11:52;;;;;;;21.00;12.73;;;5.70;99.90;;;;;;4946271;28;20058;-67
2021/11/07 09:14:23;;;;;;;23.60;12.73;;;5.80;99.90;;;;;;4938073;29;20047;-65
2021/11/07 09:16:53;;;;;;;22.23;13.23;;;5.80;99.90;;;;;;4943846;29;20039;-65
2021/11/07 09:19:24;;;;;;;21.42;12.85;;;5.80;99.90;;;;;;4949175;28;20039;-66
2021/11/07 09:22:11;;;;;;;20.92;12.48;;;5.80;99.90;;;;;;4951234;28;20110;-66
2021/11/07 09:27:32;;;;;;;22.05;12.77;;;5.90;99.90;;;;;;4953600;28;20047;-66
2021/11/07 09:38:01;;;;;;;19.48;11.88;;;6.40;99.90;;;;;;4958497;28;20039;-66
2021/11/07 09:40:32;;;;;;;18.00;11.13;;;6.60;99.90;;;;;;4955343;28;20498;-66
2021/11/07 09:46:03;;;;;;;20.85;11.77;;;6.70;99.90;;;;;;4949090;29;20047;-66
2021/11/07 09:48:36;;;;;;;25.35;12.52;;;6.70;99.90;;;;;;4952353;29;20073;-66
2021/11/07 09:51:06;;;;;;;20.02;12.93;;;6.70;99.90;;;;;;4938638;28;20048;-66
2021/11/07 09:53:33;;;;;;;16.77;10.73;;;6.70;99.90;;;;;;4948560;29;20035;-65
2021/11/07 09:56:01;;;;;;;19.40;11.45;;;6.80;99.90;;;;;;4935699;29;20090;-65
2021/11/07 09:58:28;;;;;;;19.98;12.05;;;6.80;99.90;;;;;;4945525;29;20047;-65
2021/11/07 10:00:56;;;;;;;17.98;10.75;;;6.80;99.90;;;;;;4954905;28;20050;-65
2021/11/07 10:03:25;;;;;;;17.00;10.38;;;6.80;99.90;;;;;;4951404;29;20061;-66
2021/11/07 10:05:54;;;;;;;17.90;10.93;;;6.90;99.90;;;;;;4936867;29;20648;-66
2021/11/07 10:08:24;;;;;;;18.40;10.45;;;6.90;99.90;;;;;;4935791;29;20059;-67
2021/11/07 10:11:03;;;;;;;16.40;10.73;;;7.10;99.90;;;;;;4950047;28;20043;-65
2021/11/07 10:13:32;;;;;;;17.17;10.27;;;7.10;99.90;;;;;;4956446;28;20048;-66
2021/11/07 10:16:11;;;;;;;16.35;9.85;;;7.20;99.90;;;;;;4957694;28;20036;-66
2021/11/07 10:18:49;;;;;;;19.80;9.57;;;7.00;99.90;;;;;;4943761;28;20051;-66
2021/11/07 10:21:34;;;;;;;14.80;9.18;;;7.00;99.90;;;;;;4951996;28;20036;-66
2021/11/07 10:24:14;;;;;;;15.27;9.73;;;7.00;99.90;;;;;;4947015;29;20039;-65
2021/11/07 10:26:51;;;;;;;13.02;8.75;;;7.10;99.90;;;;;;4939610;29;20043;-65
2021/11/07 10:29:49;;;;;;;12.68;8.32;;;7.00;99.90;;;;;;4960925;28;20062;-65
2021/11/07 10:32:37;;;;;;;13.45;8.02;;;7.00;99.90;;;;;;4942259;28;20427;-65
2021/11/07 10:54:24;;;;;;;10.85;6.82;;;6.80;99.90;;;;;;4955537;28;20052;-64
2021/11/07 10:57:15;;;;;;;11.93;6.93;;;6.90;99.90;;;;;;4944924;28;20062;-64
2021/11/07 11:00:18;;;;;;;9.77;6.22;;;6.90;99.90;;;;;;4944137;28;20126;-63
2021/11/07 11:02:52;;;;;;;12.90;7.63;;;6.80;99.90;;;;;;4948307;28;20079;-63
2021/11/07 11:06:04;;;;;;;13.45;8.02;;;6.80;99.90;;;;;;4955606;28;20062;-63
2021/11/07 11:08:41;;;;;;;12.57;7.22;;;6.90;99.90;;;;;;4961527;28;20101;-64
2021/11/07 11:11:19;;;;;;;14.10;7.75;;;6.90;99.90;;;;;;4953398;28;20043;-64
2021/11/07 11:29:54;;;;;;;9.85;6.55;;;7.30;99.90;;;;;;4949226;28;20513;-67
2021/11/07 11:40:55;;;;;;;14.45;7.53;;;7.30;99.90;;;;;;4951712;28;20046;-66
2021/11/07 11:43:35;;;;;;;11.43;7.00;;;7.30;99.90;;;;;;4949574;28;20590;-66
2021/11/07 11:46:27;;;;;;;12.45;6.68;;;7.20;99.90;;;;;;4951538;28;20066;-66
2021/11/07 12:03:09;;;;;;;10.77;5.78;;;7.70;99.90;;;;;;4957137;28;20122;-67
2021/11/07 12:05:55;;;;;;;11.63;6.18;;;7.60;99.90;;;;;;4952215;28;20055;-65
2021/11/07 12:08:37;;;;;;;9.20;5.60;;;7.80;99.90;;;;;;4941086;29;20055;-66
2021/11/07 12:11:42;;;;;;;10.52;5.60;;;8.00;99.90;;;;;;5138077;22;20145;-65
2021/11/07 12:14:13;;;;;;;10.07;6.00;;;8.10;99.90;;;;;;5042181;28;20108;-65
2021/11/07 12:16:58;;;;;;;9.00;5.55;;;8.40;99.90;;;;;;5022973;28;20069;-66
2021/11/07 12:19:42;;;;;;;10.57;5.53;;;8.50;99.90;;;;;;5028752;28;20056;-66
2021/11/07 12:22:11;;;;;;;12.45;5.50;;;8.60;99.90;;;;;;5044879;28;20132;-66
2021/11/07 12:24:48;;;;;;;10.60;5.68;;;8.70;99.90;;;;;;5030126;28;20106;-66
2021/11/07 12:27:43;;;;;;;8.35;5.03;;;8.80;99.90;;;;;;5030300;28;20050;-67
2021/11/07 12:30:43;;;;;;;9.85;5.30;;;8.70;99.90;;;;;;5002217;28;20037;-66
2021/11/07 12:33:16;;;;;;;9.35;5.57;;;8.50;99.90;;;;;;4968227;28;20049;-66
2021/11/07 12:36:26;;;;;;;10.55;5.60;;;8.50;99.90;;;;;;5002113;28;20050;-66
2021/11/07 12:41:31;;;;;;;10.20;5.20;;;8.30;99.90;;;;;;5006995;28;20053;-67
2021/11/07 12:44:04;;;;;;;9.60;4.95;;;8.30;99.90;;;;;;5010633;28;20057;-67
2021/11/07 12:49:15;;;;;;;11.07;5.93;;;8.20;99.90;;;;;;5010752;28;20448;-66
2021/11/07 12:51:47;;;;;;;8.20;5.60;;;8.30;99.90;;;;;;5004990;28;20057;-67
2021/11/07 12:54:31;;;;;;;8.35;4.93;;;8.30;99.90;;;;;;5001747;28;20041;-67
2021/11/07 12:57:09;;;;;;;8.98;5.78;;;8.40;99.90;;;;;;5011232;28;20061;-67
2021/11/07 12:59:45;;;;;;;8.63;5.22;;;8.40;99.90;;;;;;5006003;28;20037;-67
2021/11/07 13:02:29;;;;;;;10.05;4.68;;;8.40;99.90;;;;;;5009720;28;20138;-67
2021/11/07 13:05:16;;;;;;;9.05;4.57;;;8.50;99.90;;;;;;5013882;28;20052;-67
2021/11/07 13:07:58;;;;;;;7.45;4.25;;;8.50;99.90;;;;;;5009731;28;20121;-67
2021/11/07 13:10:46;;;;;;;8.93;4.75;;;8.50;99.90;;;;;;5010768;28;20049;-68
2021/11/07 13:35:01;;;;;;;9.85;4.97;;;8.10;99.90;;;;;;5004815;28;20054;-67
2021/11/07 13:37:38;;;;;;;8.18;4.15;;;8.10;99.90;;;;;;4990209;28;20141;-67
2021/11/07 13:40:09;;;;;;;6.57;3.60;;;8.10;99.90;;;;;;4999805;28;20611;-67
2021/11/07 13:42:40;;;;;;;6.20;4.40;;;8.10;99.90;;;;;;4992856;28;20132;-67
2021/11/07 13:45:11;;;;;;;9.63;4.15;;;8.10;99.90;;;;;;4990190;28;20472;-67
2021/11/07 13:47:44;;;;;;;7.40;4.00;;;8.10;99.90;;;;;;4992448;28;20097;-66
2021/11/07 13:50:16;;;;;;;7.07;4.20;;;8.00;99.90;;;;;;4994577;28;20042;-69
2021/11/07 13:52:55;;;;;;;6.97;4.30;;;8.00;99.90;;;;;;4993459;28;20054;-66
2021/11/07 13:55:28;;;;;;;7.35;4.13;;;8.00;99.90;;;;;;4998917;28;20603;-66
2021/11/07 13:58:16;;;;;;;6.85;4.03;;;8.10;99.90;;;;;;4990179;28;20096;-67
2021/11/07 14:00:46;;;;;;;6.60;3.40;;;8.20;99.90;;;;;;5008842;28;20045;-66
2021/11/07 14:03:21;;;;;;;10.43;5.55;;;8.20;99.90;;;;;;5013041;28;20046;-67
2021/11/07 14:05:56;;;;;;;6.38;3.42;;;8.50;99.90;;;;;;5008861;28;20050;-67
2021/11/07 14:08:23;;;;;;;5.22;2.88;;;8.60;99.90;;;;;;5013234;28;20057;-67
2021/11/07 14:10:53;;;;;;;7.70;3.80;;;8.70;99.90;;;;;;5011741;28;20045;-68
2021/11/07 14:13:21;;;;;;;5.93;3.33;;;8.60;99.90;;;;;;5011750;28;20044;-68
2021/11/07 14:15:51;;;;;;;7.00;2.70;;;8.60;99.90;;;;;;5012409;28;20469;-67
2021/11/07 14:18:29;;;;;;;8.48;5.05;;;8.40;99.90;;;;;;5004828;28;20044;-67
2021/11/07 14:21:03;;;;;;;5.53;3.17;;;8.20;99.90;;;;;;5015326;28;20049;-67
2021/11/07 14:31:49;;;;;;;5.32;3.00;;;8.30;99.90;;;;;;5006449;28;20054;-68
2021/11/07 14:34:37;;;;;;;6.55;2.72;;;8.40;99.90;;;;;;5003293;28;20037;-68
2021/11/07 14:37:10;;;;;;;4.43;2.17;;;8.40;99.90;;;;;;5001218;28;20046;-68
2021/11/07 14:48:53;;;;;;;5.55;2.80;;;8.30;99.90;;;;;;5002319;28;20038;-68
2021/11/07 14:54:32;;;;;;;7.05;2.80;;;8.20;99.90;;;;;;5010903;28;20062;-66
2021/11/07 14:59:53;;;;;;;4.20;2.67;;;8.10;99.90;;;;;;5009291;28;20489;-67
2021/11/07 15:08:27;;;;;;;4.60;2.30;;;7.90;99.90;;;;;;5011703;28;20042;-66
2021/11/07 15:14:03;;;;;;;4.63;2.42;;;8.10;99.90;;;;;;5002951;28;20092;-67
2021/11/07 15:16:47;;;;;;;4.63;2.35;;;8.00;99.90;;;;;;5011245;28;20049;-68
2021/11/07 15:19:37;;;;;;;5.15;2.38;;;8.00;99.90;;;;;;4998188;28;20076;-67
2021/11/07 15:22:18;;;;;;;3.40;2.00;;;8.00;99.90;;;;;;5010578;28;20041;-67
2021/11/07 15:24:46;;;;;;;4.80;2.65;;;8.00;99.90;;;;;;5010940;28;20046;-67
2021/11/07 15:27:18;;;;;;;4.43;2.42;;;7.90;99.90;;;;;;5009200;28;20049;-67
2021/11/07 15:29:59;;;;;;;4.07;2.30;;;7.80;99.90;;;;;;5010116;28;20054;-67
2021/11/07 15:32:35;;;;;;;5.05;2.88;;;7.80;99.90;;;;;;5010067;28;20136;-67
2021/11/07 15:35:16;;;;;;;4.97;2.88;;;7.80;99.90;;;;;;5001228;28;20484;-67
2021/11/07 15:37:43;;;;;;;4.30;2.40;;;7.80;99.90;;;;;;5009271;28;20048;-67
2021/11/07 15:40:14;;;;;;;4.22;2.20;;;7.70;99.90;;;;;;5009568;28;20041;-67
2021/11/07 15:42:44;;;;;;;4.30;2.47;;;7.80;99.90;;;;;;5009431;28;20045;-67
2021/11/07 15:45:19;;;;;;;4.55;2.80;;;7.70;99.90;;;;;;5003584;28;20671;-67
2021/11/07 15:47:50;;;;;;;6.60;2.72;;;7.70;99.90;;;;;;5007874;28;20061;-67
2021/11/07 15:50:30;;;;;;;4.75;2.80;;;7.60;99.90;;;;;;5009473;28;20052;-67
2021/11/07 15:53:44;;;;;;;4.28;2.85;;;7.60;99.90;;;;;;5011342;28;20052;-67
2021/11/07 15:55:58;;;;;;;3.92;2.50;;;7.60;99.90;;;;;;5010833;28;20041;-67
2021/11/07 15:58:55;;;;;;;4.80;2.60;;;7.60;99.90;;;;;;5010477;28;20879;-67
2021/11/07 16:06:59;;;;;;;6.90;3.80;;;7.70;99.90;;;;;;5002491;28;20049;-68
2021/11/07 16:12:34;;;;;;;6.05;3.63;;;7.60;99.90;;;;;;4998692;28;20630;-67
2021/11/07 16:15:13;;;;;;;7.05;3.67;;;7.70;99.90;;;;;;5004538;28;20038;-67
2021/11/07 16:17:44;;;;;;;6.05;3.97;;;7.60;99.90;;;;;;5001000;28;20046;-66
2021/11/07 16:20:15;;;;;;;7.57;3.78;;;7.60;99.90;;;;;;5013473;28;20049;-66
2021/11/07 16:22:46;;;;;;;6.30;3.92;;;7.60;99.90;;;;;;5017060;28;20042;-68
2021/11/07 16:25:19;;;;;;;7.35;4.35;;;7.70;99.90;;;;;;5011506;28;20076;-67
2021/11/07 16:27:46;;;;;;;7.10;4.57;;;7.60;99.90;;;;;;4999838;28;20050;-67
2021/11/07 16:30:16;;;;;;;6.65;4.40;;;7.50;99.90;;;;;;4995520;28;20181;-67
2021/11/07 16:35:45;;;;;;;7.53;4.13;;;7.60;99.90;;;;;;4990036;28;20050;-67
2021/11/07 16:40:47;;;;;;;9.43;5.00;;;7.60;99.90;;;;;;5019583;28;20068;-68